Time;durP1;ratioP1;P1;durP2;ratioP2;P2;SDS_P1;SDS_P2;PMS_P1;PMS_P2;Temp;Humidity;BMP_temperature;BMP_pressure;BME280_temperature;BME280_humidity;BME280_pressure;Samples;Min_cycle;Max_cycle;Signal;HPM_P1;HPM_P2
2021/12/26 00:00:31;;;;;;;7.18;2.80;;;;;;;-3.45;72.24;100601.56;6276311;22;20004;-90
2021/12/26 00:02:57;;;;;;;7.03;3.30;;;;;;;-3.48;72.04;100596.53;6249558;22;20361;-90
2021/12/26 00:05:24;;;;;;;5.97;2.95;;;;;;;-3.39;72.50;100610.81;6249331;22;20166;-91
2021/12/26 00:07:53;;;;;;;6.40;3.08;;;;;;;-3.11;72.13;100649.09;6275978;22;20004;-90
2021/12/26 00:10:24;;;;;;;4.88;2.95;;;;;;;-3.09;72.51;100647.16;6249307;22;20003;-91
2021/12/26 00:12:50;;;;;;;4.90;3.10;;;;;;;-3.07;71.39;100647.00;6248722;22;20077;-90
2021/12/26 00:15:16;;;;;;;3.83;2.72;;;;;;;-3.33;72.08;100607.63;6248947;22;20004;-89
2021/12/26 00:17:42;;;;;;;6.80;3.03;;;;;;;-3.30;71.83;100622.47;6249310;22;20098;-90
2021/12/26 00:20:10;;;;;;;6.60;2.78;;;;;;;-3.36;72.27;100614.03;6249664;22;20046;-91
2021/12/26 00:22:36;;;;;;;6.47;3.13;;;;;;;-3.19;72.20;100635.63;6251165;22;20007;-90
2021/12/26 00:25:07;;;;;;;5.55;2.95;;;;;;;-3.50;72.31;100579.03;6249996;22;20007;-90
2021/12/26 00:27:33;;;;;;;5.73;3.00;;;;;;;-3.09;71.84;100646.31;6251234;22;20006;-90
2021/12/26 00:29:59;;;;;;;6.25;2.72;;;;;;;-3.03;72.31;100659.91;6225225;22;20020;-91
2021/12/26 00:32:25;;;;;;;8.38;3.45;;;;;;;-3.56;72.88;100577.75;6225401;22;20011;-91
2021/12/26 00:34:53;;;;;;;4.88;3.00;;;;;;;-3.59;72.92;100573.56;6251382;22;20008;-91
2021/12/26 00:37:19;;;;;;;6.03;2.97;;;;;;;-3.57;72.95;100573.44;6225724;22;20061;-91
2021/12/26 00:39:45;;;;;;;4.90;3.13;;;;;;;-3.56;72.40;100572.44;6251105;22;20007;-90
2021/12/26 00:42:10;;;;;;;6.80;3.53;;;;;;;-3.28;72.61;100631.13;6250580;22;20378;-91
2021/12/26 00:44:39;;;;;;;5.50;2.90;;;;;;;-3.65;72.73;100559.97;6245295;22;20027;-90
2021/12/26 00:47:12;;;;;;;7.07;3.33;;;;;;;-3.77;72.28;100556.56;6245202;23;20009;-90
2021/12/26 00:49:41;;;;;;;;;;;;;;;-3.09;72.40;100656.94;6246616;23;20010;-90
2021/12/26 00:52:08;;;;;;;5.90;2.90;;;;;;;-3.68;72.83;100561.06;6245596;23;19903;-90
2021/12/26 00:54:34;;;;;;;6.78;3.40;;;;;;;-3.60;72.91;100576.31;6245374;23;20423;-91
2021/12/26 00:57:00;;;;;;;5.57;3.17;;;;;;;-3.32;72.98;100624.38;6245672;23;20401;-90
2021/12/26 00:59:29;;;;;;;5.75;3.03;;;;;;;-3.34;72.96;100613.91;6245212;23;20035;-89
2021/12/26 01:01:55;;;;;;;4.05;3.08;;;;;;;-3.15;72.26;100628.25;6246537;22;20005;-90
2021/12/26 01:04:21;;;;;;;5.63;3.15;;;;;;;-3.15;72.18;100621.13;6244809;23;20011;-89
2021/12/26 01:06:48;;;;;;;5.93;3.10;;;;;;;-2.82;72.09;100664.31;6219723;23;20054;-90
2021/12/26 01:09:22;;;;;;;7.18;3.25;;;;;;;-2.91;72.03;100633.25;6246433;22;20023;-90
2021/12/26 01:11:52;;;;;;;5.95;3.10;;;;;;;-2.80;72.01;100627.88;6245133;23;20008;-90
2021/12/26 01:14:25;;;;;;;6.95;3.45;;;;;;;-2.95;71.99;100592.88;6244640;23;20051;-89
2021/12/26 01:17:01;;;;;;;7.43;3.20;;;;;;;-2.55;71.54;100636.34;6245049;23;20015;-90
2021/12/26 01:19:32;;;;;;;6.07;3.45;;;;;;;-2.65;71.30;100605.25;6245049;23;20034;-90
2021/12/26 01:21:58;;;;;;;5.57;3.05;;;;;;;-2.42;70.63;100625.44;6244464;23;20008;-89
2021/12/26 01:24:26;;;;;;;6.85;3.47;;;;;;;-2.67;70.95;100569.22;6244903;23;20386;-90
2021/12/26 01:26:52;;;;;;;5.90;3.20;;;;;;;-2.61;71.11;100565.13;6219567;23;20012;-90
2021/12/26 01:29:17;;;;;;;6.75;3.58;;;;;;;-2.47;71.13;100567.41;6244808;23;20012;-90
2021/12/26 01:31:43;;;;;;;5.35;3.40;;;;;;;-2.05;70.02;100636.31;6245690;22;20011;-90
2021/12/26 01:34:08;;;;;;;5.95;3.70;;;;;;;-1.93;69.13;100639.66;6246079;23;20313;-90
2021/12/26 01:36:35;;;;;;;7.00;3.60;;;;;;;-2.19;69.53;100594.16;6244958;23;20014;-90
2021/12/26 01:39:02;;;;;;;5.95;3.47;;;;;;;-2.36;69.90;100561.97;6244730;23;20014;-90
2021/12/26 01:41:29;;;;;;;5.97;3.20;;;;;;;-2.34;69.61;100567.16;6244501;23;20004;-90
2021/12/26 01:43:59;;;;;;;7.00;3.50;;;;;;;-2.32;69.60;100562.53;6245782;22;20428;-90
2021/12/26 01:46:26;;;;;;;7.63;3.30;;;;;;;-2.27;69.34;100562.09;6244858;23;20012;-90
2021/12/26 01:49:08;;;;;;;5.88;3.42;;;;;;;-1.74;69.68;100645.94;6244211;23;20004;-90
2021/12/26 01:51:34;;;;;;;6.65;3.55;;;;;;;-2.09;69.35;100579.06;6244969;23;20004;-90
2021/12/26 01:54:05;;;;;;;4.72;3.30;;;;;;;-2.03;68.75;100586.47;6244782;23;20011;-90
2021/12/26 01:56:31;;;;;;;6.10;3.47;;;;;;;-2.21;69.04;100554.44;6220902;23;20010;-90
2021/12/26 01:58:57;;;;;;;5.78;3.58;;;;;;;-2.17;68.83;100561.16;6219683;23;20028;-90
2021/12/26 02:01:23;;;;;;;6.80;3.30;;;;;;;-2.15;69.45;100561.84;6246424;23;20001;-91
2021/12/26 02:03:49;;;;;;;7.28;3.58;;;;;;;-2.11;69.28;100570.41;6244499;23;20012;-90
2021/12/26 02:06:15;;;;;;;7.03;3.80;;;;;;;-1.90;69.19;100594.19;6218876;23;20043;-90
2021/12/26 02:08:41;;;;;;;7.55;4.03;;;;;;;-1.61;69.50;100619.91;6244205;23;20008;-90
2021/12/26 02:11:09;;;;;;;8.00;3.90;;;;;;;-2.00;69.04;100559.59;6219197;23;20014;-89
2021/12/26 02:13:38;;;;;;;7.20;3.53;;;;;;;-1.94;68.77;100561.69;6245969;23;20008;-90
2021/12/26 02:16:08;;;;;;;7.35;3.85;;;;;;;-1.67;68.82;100594.72;6245733;23;20011;-90
2021/12/26 02:18:33;;;;;;;8.05;3.78;;;;;;;-1.78;69.13;100581.56;6244745;23;20031;-90
2021/12/26 02:28:47;;;;;;;6.07;3.65;;;;;;;-1.71;68.99;100558.75;6246037;23;20020;-90
2021/12/26 02:31:13;;;;;;;;;;;;;;;-1.19;69.66;100629.38;6244839;23;20008;-90
2021/12/26 02:33:43;;;;;;;8.40;3.58;;;;;;;-1.54;68.53;100575.78;6243694;23;19907;-90
2021/12/26 02:36:08;;;;;;;7.03;3.92;;;;;;;-1.38;68.51;100593.00;6243969;23;20008;-90
2021/12/26 02:38:37;;;;;;;7.07;3.97;;;;;;;-1.39;68.05;100583.31;6243865;23;20043;-90
2021/12/26 02:41:04;;;;;;;7.03;3.63;;;;;;;-1.17;68.26;100620.22;6243574;23;20091;-90
2021/12/26 02:43:32;;;;;;;8.30;4.15;;;;;;;-1.43;67.82;100572.97;6218860;23;20020;-90
2021/12/26 02:46:04;;;;;;;9.15;3.90;;;;;;;-1.63;68.59;100534.06;6243607;22;20012;-90
2021/12/26 02:48:30;;;;;;;4.78;3.30;;;;;;;-1.37;67.90;100579.53;6244213;23;20377;-90
2021/12/26 02:50:57;;;;;;;8.23;3.90;;;;;;;-1.63;67.70;100537.56;6218204;23;20036;-90
2021/12/26 02:53:23;;;;;;;6.32;3.70;;;;;;;-1.67;67.98;100538.88;6244012;23;20004;-89
2021/12/26 02:55:51;;;;;;;8.68;3.65;;;;;;;-1.64;68.14;100543.91;6243492;23;20077;-89
2021/12/26 02:58:17;;;;;;;8.57;3.75;;;;;;;-1.65;68.68;100541.38;6245220;22;20000;-89
2021/12/26 03:01:09;;;;;;;7.75;4.00;;;;;;;-1.45;68.51;100569.63;6243868;23;20012;-90
2021/12/26 03:03:37;;;;;;;8.07;3.97;;;;;;;-1.65;67.91;100544.88;6244009;23;20004;-90
2021/12/26 03:06:17;;;;;;;7.63;3.75;;;;;;;-1.72;68.17;100538.44;6245004;22;20416;-90
2021/12/26 03:08:43;;;;;;;6.82;3.85;;;;;;;-1.68;68.26;100538.97;6243056;23;20007;-90
2021/12/26 03:11:11;;;;;;;7.53;3.80;;;;;;;-1.77;68.36;100522.09;6218511;23;20012;-90
2021/12/26 03:13:36;;;;;;;7.68;3.92;;;;;;;-1.39;68.21;100586.81;6243871;23;20004;-90
2021/12/26 03:16:02;;;;;;;6.63;3.72;;;;;;;-1.72;68.36;100537.59;6243695;23;20035;-90
2021/12/26 03:18:30;;;;;;;5.53;3.70;;;;;;;-1.45;68.84;100585.59;6218445;23;20079;-90
2021/12/26 03:20:56;;;;;;;5.88;3.50;;;;;;;-1.86;68.48;100531.75;6245201;22;20027;-90
2021/12/26 03:23:25;;;;;;;10.20;3.95;;;;;;;-1.86;68.73;100549.50;6218776;23;20018;-89
2021/12/26 03:25:58;;;;;;;9.10;4.00;;;;;;;-1.99;68.93;100541.84;6243366;23;20010;-90
2021/12/26 03:28:25;;;;;;;7.47;3.78;;;;;;;-2.17;69.59;100531.06;6245267;23;20005;-90
2021/12/26 03:30:52;;;;;;;6.90;4.03;;;;;;;-1.92;70.10;100580.16;6243822;23;20035;-90
2021/12/26 03:33:18;;;;;;;5.32;3.30;;;;;;;-1.97;69.70;100588.56;6243937;23;20027;-90
2021/12/26 03:35:43;;;;;;;6.65;3.95;;;;;;;-2.41;70.01;100534.13;6245273;22;20000;-90
2021/12/26 03:38:11;;;;;;;6.03;3.85;;;;;;;-2.51;70.60;100534.13;6193535;23;20016;-89
2021/12/26 03:40:37;;;;;;;8.20;4.20;;;;;;;-2.36;70.72;100566.44;6243504;23;20454;-89
2021/12/26 03:43:10;;;;;;;8.27;3.72;;;;;;;-2.72;71.36;100527.09;6244608;22;20058;-89
2021/12/26 03:45:39;;;;;;;7.97;4.10;;;;;;;-2.33;71.60;100596.25;6243149;22;20050;-89
2021/12/26 03:48:05;;;;;;;9.20;4.13;;;;;;;-2.54;71.43;100577.75;6245062;23;20062;-89
2021/12/26 03:50:32;;;;;;;7.07;4.07;;;;;;;-2.92;71.74;100514.75;6243250;23;20435;-89
2021/12/26 03:52:58;;;;;;;8.27;4.28;;;;;;;-2.77;72.14;100563.84;6243540;23;20039;-89
2021/12/26 03:55:26;;;;;;;8.48;4.13;;;;;;;-2.85;71.89;100553.06;6244484;23;20450;-89
2021/12/26 03:57:53;;;;;;;6.55;4.10;;;;;;;-2.91;72.27;100543.00;6220502;23;20333;-90
2021/12/26 04:00:21;;;;;;;6.57;3.85;;;;;;;-3.02;72.61;100528.00;6245473;23;20004;-90
2021/12/26 04:02:47;;;;;;;7.13;3.97;;;;;;;-3.11;72.61;100526.19;6245797;23;20059;-90
2021/12/26 04:05:14;;;;;;;8.32;4.20;;;;;;;-3.18;73.04;100525.84;6247035;23;20081;-90
2021/12/26 04:07:41;;;;;;;5.22;3.75;;;;;;;-3.07;73.18;100541.69;6245734;23;20431;-90
2021/12/26 04:10:11;;;;;;;7.47;3.80;;;;;;;-2.78;73.24;100587.91;6246849;22;20008;-90
2021/12/26 04:12:37;;;;;;;6.30;3.90;;;;;;;-3.06;73.14;100545.19;6220851;23;20012;-89
2021/12/26 04:15:06;;;;;;;8.05;4.00;;;;;;;-3.42;73.75;100500.50;6245766;23;20437;-90
2021/12/26 04:17:31;;;;;;;7.13;3.88;;;;;;;-3.26;73.08;100538.94;6244920;23;20011;-90
2021/12/26 04:19:56;;;;;;;7.68;4.28;;;;;;;-3.45;74.09;100508.72;6247387;22;20004;-90
2021/12/26 04:22:22;;;;;;;5.97;3.70;;;;;;;-3.47;74.00;100501.84;6245671;23;20012;-89
2021/12/26 04:24:48;;;;;;;6.85;3.97;;;;;;;-3.50;74.07;100499.47;6247160;22;20004;-89
2021/12/26 04:27:13;;;;;;;6.35;4.03;;;;;;;-3.09;73.70;100577.31;6247072;22;20058;-89
2021/12/26 04:29:39;;;;;;;5.72;3.92;;;;;;;-3.53;74.24;100500.56;6245598;23;20004;-90
2021/12/26 04:32:05;;;;;;;6.10;3.95;;;;;;;-3.57;73.86;100505.31;6245492;23;20008;-90
2021/12/26 04:34:30;;;;;;;8.00;4.03;;;;;;;-3.57;74.57;100513.25;6244725;23;20091;-90
2021/12/26 04:36:56;;;;;;;5.45;3.80;;;;;;;-3.59;74.51;100504.63;6245657;23;20066;-89
2021/12/26 04:39:21;;;;;;;6.43;3.97;;;;;;;-3.36;74.83;100550.34;6219610;23;20016;-89
2021/12/26 04:41:53;;;;;;;8.18;4.53;;;;;;;-3.66;74.28;100494.63;6246474;22;20075;-89
2021/12/26 04:44:18;;;;;;;6.65;4.00;;;;;;;-3.68;74.64;100496.59;6248588;22;20012;-89
2021/12/26 04:46:49;;;;;;;8.00;4.03;;;;;;;-3.70;74.80;100496.72;6250199;22;20389;-90
2021/12/26 04:49:14;;;;;;;8.50;4.07;;;;;;;-3.72;74.67;100490.69;6225342;22;20041;-90
2021/12/26 04:51:39;;;;;;;6.28;3.78;;;;;;;-3.77;74.39;100479.66;6224139;22;20035;-90
2021/12/26 04:54:08;;;;;;;5.80;3.83;;;;;;;-3.74;75.00;100495.31;6277058;22;19999;-90
2021/12/26 04:56:34;;;;;;;7.13;4.07;;;;;;;-3.78;75.10;100497.41;6249946;22;20053;-89
2021/12/26 04:59:03;;;;;;;6.18;3.90;;;;;;;-3.77;74.89;100495.56;6249914;22;20007;-89
2021/12/26 05:01:29;;;;;;;7.07;3.72;;;;;;;-3.45;74.82;100556.47;6249895;22;20086;-89
2021/12/26 05:03:57;;;;;;;8.48;4.13;;;;;;;-3.88;75.05;100488.53;6249436;22;20043;-90
2021/12/26 05:06:32;;;;;;;8.07;4.00;;;;;;;-3.91;74.80;100483.50;6249716;22;20589;-89
2021/12/26 05:08:57;;;;;;;6.18;3.55;;;;;;;-3.93;75.45;100488.91;6249646;22;20035;-90
2021/12/26 05:11:23;;;;;;;8.35;4.20;;;;;;;-3.82;75.38;100506.56;6250113;22;20011;-90
2021/12/26 05:13:51;;;;;;;8.23;3.83;;;;;;;-3.81;75.22;100520.66;6249729;22;20431;-90
2021/12/26 05:16:17;;;;;;;6.50;4.00;;;;;;;-3.53;75.69;100562.44;6225098;22;20008;-90
2021/12/26 05:18:43;;;;;;;7.72;4.28;;;;;;;-4.02;75.87;100483.56;6224830;22;20011;-90
2021/12/26 05:21:09;;;;;;;8.43;4.00;;;;;;;-3.75;76.32;100528.94;6200075;22;20149;-90
2021/12/26 05:23:34;;;;;;;6.40;4.20;;;;;;;-4.08;76.13;100479.63;6250210;22;20011;-90
2021/12/26 05:26:00;;;;;;;7.93;4.00;;;;;;;-4.09;76.39;100477.94;6249329;22;20091;-90
2021/12/26 05:28:26;;;;;;;6.03;4.03;;;;;;;-4.13;76.90;100469.41;6249882;22;20011;-90
2021/12/26 05:30:51;;;;;;;8.82;3.67;;;;;;;-3.72;76.41;100538.44;6250043;22;20089;-90
2021/12/26 05:33:17;;;;;;;6.93;3.78;;;;;;;-4.13;76.42;100465.94;6224994;22;20014;-90
2021/12/26 05:35:42;;;;;;;7.70;4.28;;;;;;;-3.75;76.56;100531.59;6249721;22;20520;-89
2021/12/26 05:38:08;;;;;;;6.60;4.25;;;;;;;-3.96;76.63;100502.41;6249853;22;20026;-89
2021/12/26 05:40:33;;;;;;;10.30;4.45;;;;;;;-4.14;76.30;100477.50;6249905;22;20431;-90
2021/12/26 05:42:59;;;;;;;7.45;4.43;;;;;;;-4.09;77.16;100477.94;6249645;22;20054;-89
2021/12/26 05:45:24;;;;;;;7.95;4.30;;;;;;;-3.67;76.83;100546.03;6275945;22;20438;-90
2021/12/26 05:47:50;;;;;;;6.93;3.83;;;;;;;-3.81;77.06;100521.53;6249842;22;20008;-90
2021/12/26 05:50:20;;;;;;;8.50;4.18;;;;;;;-4.18;77.46;100465.47;6249567;22;20355;-90
2021/12/26 05:52:47;;;;;;;7.35;4.05;;;;;;;-4.08;77.38;100483.09;6249652;22;20437;-90
2021/12/26 05:55:13;;;;;;;9.05;4.57;;;;;;;-3.71;77.87;100534.81;6224537;22;20085;-90
2021/12/26 05:57:39;;;;;;;8.98;4.38;;;;;;;-3.91;76.79;100496.75;6249649;22;20003;-89
2021/12/26 06:00:08;;;;;;;8.13;3.95;;;;;;;-3.79;77.48;100524.03;6249456;22;20054;-90
2021/12/26 06:02:34;;;;;;;10.43;4.40;;;;;;;-3.77;77.40;100524.75;6248685;22;20398;-90
2021/12/26 06:04:59;;;;;;;8.50;4.20;;;;;;;-3.78;77.61;100528.34;6276598;22;20004;-91
2021/12/26 06:07:25;;;;;;;8.25;4.80;;;;;;;-4.01;77.98;100491.38;6224747;22;20039;-90
2021/12/26 06:09:50;;;;;;;8.00;4.28;;;;;;;-3.94;77.46;100510.25;6250249;22;20397;-91
2021/12/26 06:12:16;;;;;;;7.97;4.40;;;;;;;-3.80;77.73;100531.13;6224775;22;20069;-90
2021/12/26 06:14:42;;;;;;;7.72;4.63;;;;;;;-4.03;77.53;100497.78;6224732;22;20014;-90
2021/12/26 06:17:09;;;;;;;10.80;4.65;;;;;;;-4.03;78.12;100497.78;6249596;22;20348;-89
2021/12/26 06:19:34;;;;;;;6.45;4.30;;;;;;;-4.37;78.50;100443.19;6249105;22;20003;-90
2021/12/26 06:22:03;;;;;;;7.43;4.22;;;;;;;-4.41;78.08;100439.94;6249730;22;20015;-90
2021/12/26 06:24:32;;;;;;;8.50;4.30;;;;;;;-4.40;77.45;100448.72;6223308;22;20011;-89
2021/12/26 06:26:57;;;;;;;8.30;4.22;;;;;;;-4.09;78.24;100507.06;6276091;22;20007;-90
2021/12/26 06:29:25;;;;;;;9.02;4.57;;;;;;;-3.99;78.36;100523.88;6224437;22;20016;-90
2021/12/26 06:31:58;;;;;;;7.68;4.72;;;;;;;-4.00;78.48;100524.03;6249100;22;20010;-95
2021/12/26 06:34:23;;;;;;;8.57;4.25;;;;;;;-4.46;78.65;100446.56;6226433;22;20012;-93
2021/12/26 06:36:49;;;;;;;6.80;4.25;;;;;;;-4.43;78.85;100457.78;6249309;22;20065;-90
2021/12/26 06:39:37;;;;;;;7.88;4.43;;;;;;;-4.45;78.55;100456.22;6249560;22;20094;-93
2021/12/26 06:42:03;;;;;;;9.00;4.40;;;;;;;-4.43;78.71;100455.13;6237798;22;20086;-94
2021/12/26 06:44:31;;;;;;;8.50;4.50;;;;;;;-4.26;77.88;100485.50;6244964;22;20011;-90
2021/12/26 06:46:57;;;;;;;8.18;4.68;;;;;;;-3.98;78.35;100532.69;6243053;22;20044;-93
2021/12/26 06:49:25;;;;;;;6.97;4.55;;;;;;;-4.45;79.24;100465.00;6220765;23;20513;-93
2021/12/26 06:51:53;;;;;;;7.68;4.43;;;;;;;-4.41;78.98;100474.38;6245377;23;20004;-93
2021/12/26 06:54:19;;;;;;;8.13;4.60;;;;;;;-4.38;78.62;100461.81;6245500;23;19999;-93
2021/12/26 06:56:50;;;;;;;11.27;5.13;;;;;;;-4.39;78.58;100461.00;6245739;23;20004;-93
2021/12/26 06:59:17;;;;;;;8.05;4.60;;;;;;;-3.87;78.46;100535.28;6246560;22;20000;-94
2021/12/26 07:01:43;;;;;;;7.38;4.50;;;;;;;-4.37;78.88;100453.78;6220021;23;20012;-93
2021/12/26 07:04:19;;;;;;;7.03;4.60;;;;;;;-4.35;78.21;100449.19;6245442;23;20007;-93
2021/12/26 07:06:54;;;;;;;7.57;4.40;;;;;;;-4.38;78.33;100449.44;6245128;23;20043;-94
2021/12/26 07:09:24;;;;;;;9.32;4.93;;;;;;;-4.39;79.41;100445.09;6245286;23;20435;-94
2021/12/26 07:11:56;;;;;;;8.50;5.07;;;;;;;-4.41;78.96;100449.69;6244810;23;20008;-93
2021/12/26 07:14:27;;;;;;;8.02;4.53;;;;;;;-4.43;79.18;100441.03;6241646;23;20588;-93
2021/12/26 07:17:15;;;;;;;8.43;5.20;;;;;;;-3.84;78.79;100534.19;6220457;23;20011;-94
2021/12/26 07:19:55;;;;;;;9.45;5.00;;;;;;;-4.07;78.41;100502.50;6244880;23;20011;-93
2021/12/26 07:22:23;;;;;;;10.63;4.72;;;;;;;-4.18;78.94;100484.84;6221162;23;20065;-93
2021/12/26 07:24:54;;;;;;;8.13;4.82;;;;;;;-3.89;79.30;100527.44;6244708;23;20008;-93
2021/12/26 07:27:45;;;;;;;8.32;4.85;;;;;;;-4.47;78.98;100440.44;6220267;23;20086;-93
2021/12/26 07:30:21;;;;;;;7.25;4.50;;;;;;;-4.14;79.61;100494.22;6225771;23;20004;-93
2021/12/26 07:32:49;;;;;;;8.45;4.63;;;;;;;-4.11;79.47;100496.59;6223940;23;20016;-94
2021/12/26 07:35:21;;;;;;;11.57;4.78;;;;;;;-4.21;79.23;100486.91;6222343;23;20427;-94
2021/12/26 07:37:59;;;;;;;9.30;5.00;;;;;;;-4.40;79.52;100451.34;6246704;23;20008;-93
2021/12/26 07:40:27;;;;;;;8.27;4.60;;;;;;;-4.41;79.93;100450.53;6197610;23;20008;-94
2021/12/26 07:43:15;;;;;;;10.82;5.10;;;;;;;-4.37;80.60;100450.28;6245156;23;20016;-93
2021/12/26 07:45:44;;;;;;;11.18;5.38;;;;;;;-4.43;79.92;100438.38;6201105;23;20016;-94
2021/12/26 07:48:15;;;;;;;10.23;5.35;;;;;;;-4.39;80.33;100442.44;6220994;23;20009;-93
2021/12/26 07:50:52;;;;;;;10.88;5.20;;;;;;;-4.40;80.09;100440.75;6246860;23;20031;-93
2021/12/26 07:53:23;;;;;;;9.18;5.35;;;;;;;-4.32;80.13;100453.38;6246938;23;20000;-93
2021/12/26 07:56:00;;;;;;;8.32;5.13;;;;;;;-4.32;80.37;100440.97;6247119;23;20065;-94
2021/12/26 07:58:31;;;;;;;10.88;5.65;;;;;;;-4.26;80.42;100456.34;6247212;23;20330;-94
2021/12/26 08:00:57;;;;;;;8.40;5.13;;;;;;;-4.24;79.85;100458.88;6221830;23;20091;-92
2021/12/26 08:03:23;;;;;;;12.43;5.22;;;;;;;-3.84;80.02;100513.78;6246775;23;20427;-93
2021/12/26 08:05:51;;;;;;;11.98;5.60;;;;;;;-4.06;79.84;100467.06;6247120;23;20012;-94
2021/12/26 08:08:38;;;;;;;8.23;4.80;;;;;;;-3.65;79.87;100510.41;6246899;23;20008;-94
2021/12/26 08:11:06;;;;;;;10.23;5.63;;;;;;;-3.32;79.33;100539.47;6222025;23;20015;-91
2021/12/26 08:13:37;;;;;;;10.35;5.10;;;;;;;-3.66;79.19;100465.47;6222487;23;20010;-93
2021/12/26 08:16:06;;;;;;;13.43;5.53;;;;;;;-3.45;79.59;100471.56;6246775;23;20083;-94
2021/12/26 08:18:41;;;;;;;9.38;5.82;;;;;;;-3.32;79.11;100483.75;6165330;23;20357;-93
2021/12/26 08:21:07;;;;;;;10.85;5.30;;;;;;;-3.28;78.82;100466.59;6189689;23;20008;-92
2021/12/26 08:23:56;;;;;;;12.18;5.97;;;;;;;-3.17;78.55;100463.84;6165465;23;20436;-94
2021/12/26 08:26:52;;;;;;;;;;;;;;;;;;;;;
2021/12/26 08:29:41;;;;;;;10.38;5.35;;;;;;;-2.54;78.10;100513.16;6193664;23;20100;-94
2021/12/26 08:32:29;;;;;;;14.80;5.90;;;;;;;-2.55;77.30;100484.91;6131382;23;20108;-94
2021/12/26 08:35:00;;;;;;;12.10;6.15;;;;;;;-2.41;76.70;100487.13;6125797;23;20034;-94
2021/12/26 08:38:05;;;;;;;10.73;5.55;;;;;;;-2.47;77.20;100453.16;6130197;23;20088;-94
2021/12/26 08:47:27;;;;;;;10.48;5.65;;;;;;;-1.45;76.32;100526.19;6241570;23;20487;-92
2021/12/26 08:50:36;;;;;;;10.55;5.85;;;;;;;-1.33;75.53;100517.06;6245774;23;20015;-93
2021/12/26 08:53:04;;;;;;;12.05;5.57;;;;;;;-1.80;74.60;100434.56;6130615;23;20006;-93
2021/12/26 08:55:36;;;;;;;12.13;6.18;;;;;;;-1.61;74.64;100445.16;6245755;22;20007;-94
2021/12/26 08:58:18;;;;;;;12.13;6.18;;;;;;;-1.56;74.05;100449.22;6246048;23;20070;-94
2021/12/26 09:00:43;;;;;;;;;;;;;;;-0.94;75.63;100535.50;6251979;22;19999;-94
2021/12/26 09:03:18;;;;;;;11.35;5.80;;;;;;;-1.41;73.92;100448.56;6251597;22;19948;-94
2021/12/26 09:05:44;;;;;;;11.05;5.88;;;;;;;-1.31;74.40;100451.19;6251260;22;20007;-93
2021/12/26 09:08:10;;;;;;;9.98;5.57;;;;;;;-1.24;73.96;100441.63;6251079;22;20011;-93
2021/12/26 09:10:38;;;;;;;11.45;6.00;;;;;;;-1.14;73.10;100428.25;6250846;22;20537;-92
2021/12/26 09:13:07;;;;;;;10.57;6.13;;;;;;;-1.01;73.42;100437.72;6250926;22;20008;-93
2021/12/26 09:15:36;;;;;;;11.25;5.80;;;;;;;-0.97;73.56;100442.59;6251064;22;20414;-93
2021/12/26 09:18:07;;;;;;;10.15;5.90;;;;;;;-0.55;73.53;100486.47;6250676;22;20011;-93
2021/12/26 09:20:35;;;;;;;9.43;5.78;;;;;;;-0.38;73.04;100501.63;6250942;22;20011;-93
2021/12/26 09:23:04;;;;;;;12.43;6.10;;;;;;;-0.68;72.73;100449.50;6251304;22;20134;-93
2021/12/26 09:25:44;;;;;;;9.93;6.20;;;;;;;-0.50;73.13;100478.00;6250961;22;19999;-92
2021/12/26 09:28:12;;;;;;;11.77;5.93;;;;;;;-0.62;73.01;100440.09;6250728;22;20053;-93
2021/12/26 09:30:46;;;;;;;10.90;5.82;;;;;;;-0.37;72.46;100471.31;6250140;22;20053;-93
2021/12/26 09:33:19;;;;;;;12.98;6.18;;;;;;;-0.42;72.16;100443.44;6277696;22;20509;-93
2021/12/26 09:35:54;;;;;;;10.30;6.35;;;;;;;-0.34;72.44;100448.00;6250901;22;20464;-93
2021/12/26 09:38:20;;;;;;;11.20;6.13;;;;;;;-0.33;72.04;100441.69;6251067;22;20003;-93
2021/12/26 09:41:01;;;;;;;;;;;;;;;;;;;;;
2021/12/26 09:44:05;;;;;;;;;;;;;;;;;;;;;
2021/12/26 09:46:51;;;;;;;12.70;6.35;;;;;;;0.02;71.85;100451.44;6252831;22;20078;-93
2021/12/26 09:50:01;;;;;;;9.50;6.07;;;;;;;0.11;71.69;100458.50;6249458;22;20007;-93
2021/12/26 09:53:23;;;;;;;11.20;6.47;;;;;;;0.18;72.14;100458.72;6128826;23;20076;-93
2021/12/26 09:56:03;;;;;;;;;;;;;;;;;;;;;
2021/12/26 09:59:09;;;;;;;13.20;6.38;;;;;;;0.42;71.05;100459.84;6238041;22;20086;-93
2021/12/26 10:02:00;;;;;;;;;;;;;;;;;;;;;
2021/12/26 10:04:33;;;;;;;10.77;6.28;;;;;;;0.46;70.54;100430.00;6277419;22;20405;-93
2021/12/26 10:11:00;;;;;;;10.77;6.35;;;;;;;1.12;70.65;100499.72;6277961;22;20085;-93
2021/12/26 10:14:22;;;;;;;;;;;;;;;;;;;;;
2021/12/26 10:17:30;;;;;;;12.25;6.72;;;;;;;1.11;69.39;100465.97;6277445;22;20082;-92
2021/12/26 10:20:25;;;;;;;16.13;6.75;;;;;;;0.87;69.59;100406.13;6129590;23;20492;-92
2021/12/26 10:22:55;;;;;;;18.17;8.52;;;;;;;1.01;69.26;100414.50;6250005;22;20014;-92
2021/12/26 10:25:27;;;;;;;14.60;7.40;;;;;;;1.25;69.75;100458.31;6250390;22;20385;-92
2021/12/26 10:31:30;;;;;;;15.32;7.07;;;;;;;1.28;69.49;100441.94;6184943;23;20013;-92
2021/12/26 10:34:08;;;;;;;12.40;7.03;;;;;;;1.08;69.85;100390.63;6240816;22;20011;-92
2021/12/26 10:36:52;;;;;;;11.80;6.90;;;;;;;1.12;69.70;100397.31;6250038;22;20027;-92
2021/12/26 10:39:43;;;;;;;17.25;7.75;;;;;;;1.27;70.18;100408.19;6249795;22;20004;-92
2021/12/26 10:42:16;;;;;;;12.30;7.60;;;;;;;1.35;69.58;100433.09;6250159;22;20003;-92
2021/12/26 10:45:07;;;;;;;11.68;7.50;;;;;;;1.55;70.29;100454.16;6250176;22;20011;-92
2021/12/26 10:47:42;;;;;;;13.82;7.28;;;;;;;1.07;69.51;100384.47;6249935;22;20430;-93
2021/12/26 10:53:08;;;;;;;12.18;7.20;;;;;;;1.25;69.67;100375.47;6277596;22;20039;-93
2021/12/26 10:55:51;;;;;;;;;;;;;;;;;;;;;
2021/12/26 10:58:31;;;;;;;;;;;;;;;;;;;;;
2021/12/26 11:01:02;;;;;;;13.63;7.50;;;;;;;1.37;69.18;100380.31;6249641;22;20051;-93
2021/12/26 11:04:11;;;;;;;;;;;;;;;;;;;;;
2021/12/26 11:07:17;;;;;;;12.35;7.43;;;;;;;1.96;69.88;100430.09;6269112;22;20087;-94
2021/12/26 11:10:05;;;;;;;13.73;7.93;;;;;;;1.51;69.18;100357.41;6249905;22;20328;-94
2021/12/26 11:13:02;;;;;;;14.43;8.52;;;;;;;1.54;69.46;100365.09;6255102;22;20018;-93
2021/12/26 11:15:45;;;;;;;15.60;8.10;;;;;;;2.05;69.68;100433.59;6276489;22;19999;-94
2021/12/26 13:02:37;;;;;;;16.35;9.48;;;;;;;2.89;69.58;100308.03;6068889;23;20014;-94
2021/12/26 13:33:34;;;;;;;;;;;;;;;;;;;;;
2021/12/26 18:59:48;;;;;;;28.05;18.40;;;;;;;2.87;88.63;100207.41;6246798;23;20031;-94
2021/12/26 19:52:16;;;;;;;25.00;16.33;;;;;;;2.87;92.67;100119.81;6222825;22;20055;-91
2021/12/26 20:27:49;;;;;;;;;;;;;;;;;;;;;
2021/12/26 22:33:26;;;;;;;29.35;19.20;;;;;;;3.17;98.86;100055.50;6127275;23;20020;-95
2021/12/26 22:35:54;;;;;;;;;;;;;;;3.61;96.76;100107.41;6113179;23;20041;-92
2021/12/26 22:38:28;;;;;;;28.67;18.63;;;;;;;3.42;98.61;100084.69;6234528;22;19913;-92
2021/12/26 22:40:56;;;;;;;27.77;18.70;;;;;;;3.13;98.69;100041.66;6227307;22;20512;-92
2021/12/26 22:43:22;;;;;;;29.60;19.25;;;;;;;3.54;99.25;100115.38;6250629;22;20003;-93
2021/12/26 22:45:48;;;;;;;32.40;20.73;;;;;;;3.18;98.85;100048.31;6200535;22;20377;-92
2021/12/26 22:48:13;;;;;;;29.08;18.98;;;;;;;3.15;99.39;100044.13;6260418;22;20011;-91
2021/12/26 22:50:41;;;;;;;31.20;19.85;;;;;;;3.41;99.39;100070.47;6202379;22;20007;-92
2021/12/26 22:53:07;;;;;;;28.02;19.83;;;;;;;3.19;99.68;100047.25;6226534;22;20442;-92
2021/12/26 22:55:33;;;;;;;32.33;21.20;;;;;;;3.19;99.83;100042.75;6250547;22;20007;-92
2021/12/26 22:58:03;;;;;;;28.92;19.75;;;;;;;3.39;100.00;100066.28;6225237;22;20004;-92
2021/12/26 23:00:49;;;;;;;28.40;20.00;;;;;;;3.45;99.93;100074.41;6250162;22;20438;-91
2021/12/26 23:03:25;;;;;;;30.20;20.80;;;;;;;3.53;99.58;100094.09;6249750;22;20007;-92
2021/12/26 23:05:52;;;;;;;29.13;19.92;;;;;;;3.44;99.77;100064.72;6226601;22;20003;-92
2021/12/26 23:08:27;;;;;;;32.45;21.55;;;;;;;3.40;99.95;100057.25;6248261;22;20434;-92
2021/12/26 23:10:55;;;;;;;34.47;21.98;;;;;;;3.19;100.00;100023.13;6250233;22;20397;-92
2021/12/26 23:13:25;;;;;;;31.20;20.17;;;;;;;3.45;100.00;100065.53;6249636;22;20015;-92
2021/12/26 23:15:59;;;;;;;30.67;20.55;;;;;;;3.48;99.96;100060.66;6250250;22;20008;-92
2021/12/26 23:18:27;;;;;;;29.38;20.60;;;;;;;3.45;100.00;100052.13;6225444;22;20054;-91
2021/12/26 23:20:57;;;;;;;30.95;20.50;;;;;;;3.47;99.87;100055.44;6250093;22;20430;-92
2021/12/26 23:23:24;;;;;;;30.88;20.23;;;;;;;3.49;100.00;100056.94;6250000;22;20016;-91
2021/12/26 23:25:56;;;;;;;27.88;19.98;;;;;;;3.24;99.78;100010.03;6248784;22;20003;-91